Time;durP1;ratioP1;P1;durP2;ratioP2;P2;SDS_P1;SDS_P2;PMS_P1;PMS_P2;Temp;Humidity;BMP_temperature;BMP_pressure;BME280_temperature;BME280_humidity;BME280_pressure;Samples;Min_cycle;Max_cycle;Signal;HPM_P1;HPM_P2
2022/08/26 00:00:58;;;;;;;13.15;6.82;;;;;;;21.32;75.29;101266.44;2055716;28;24483;-74
2022/08/26 00:02:02;;;;;;;11.05;6.78;;;;;;;21.30;75.67;101263.78;2055465;28;20047;-73
2022/08/26 00:03:08;;;;;;;9.55;6.20;;;;;;;21.28;75.47;101265.75;2055131;28;37515;-74
2022/08/26 00:04:10;;;;;;;13.82;7.22;;;;;;;21.28;75.69;101263.03;2054854;28;24083;-74
2022/08/26 00:05:12;;;;;;;11.77;6.70;;;;;;;21.30;75.57;101268.34;2048321;28;24784;-74
2022/08/26 00:06:14;;;;;;;10.98;6.45;;;;;;;21.28;76.19;101257.56;2047920;28;26867;-74
2022/08/26 00:07:16;;;;;;;11.57;7.25;;;;;;;21.28;76.24;101260.28;2048499;28;20051;-74
2022/08/26 00:08:20;;;;;;;13.95;7.20;;;;;;;21.26;75.58;101264.94;2047766;28;30634;-74
2022/08/26 00:09:24;;;;;;;12.30;6.90;;;;;;;21.27;76.14;101263.97;2047773;28;31402;-74
2022/08/26 00:10:26;;;;;;;9.43;7.15;;;;;;;21.27;76.06;101272.16;2047526;28;26945;-74
2022/08/26 00:11:28;;;;;;;8.15;6.10;;;;;;;21.27;76.11;101276.72;2055327;28;30704;-74
2022/08/26 00:12:30;;;;;;;12.90;7.35;;;;;;;21.25;76.19;101265.94;2054611;28;34097;-74
2022/08/26 00:13:35;;;;;;;14.02;6.43;;;;;;;21.24;75.88;101266.03;2047639;28;31204;-75
2022/08/26 00:14:37;;;;;;;11.18;7.65;;;;;;;21.23;76.80;101269.69;2056450;28;24996;-74
2022/08/26 00:15:40;;;;;;;11.70;7.93;;;;;;;21.20;76.04;101268.06;2057178;28;33803;-74
2022/08/26 00:16:45;;;;;;;8.80;6.97;;;;;;;21.18;76.22;101272.72;2054659;28;32971;-74
2022/08/26 00:17:50;;;;;;;12.82;7.63;;;;;;;21.17;76.81;101268.25;2055320;28;20121;-74
2022/08/26 00:18:52;;;;;;;10.38;6.93;;;;;;;21.15;76.34;101272.91;2048072;28;25406;-74
2022/08/26 00:19:54;;;;;;;10.15;6.75;;;;;;;21.13;76.39;101263.97;2055908;28;21812;-73
2022/08/26 00:20:55;;;;;;;10.38;7.25;;;;;;;21.14;76.97;101265.72;2055222;28;20039;-73
2022/08/26 00:21:57;;;;;;;10.38;6.80;;;;;;;21.12;76.25;101262.19;2047824;28;31021;-75
2022/08/26 00:23:00;;;;;;;12.57;7.22;;;;;;;21.11;77.08;101260.47;2058839;28;20154;-74
2022/08/26 00:24:02;;;;;;;9.13;7.03;;;;;;;21.09;77.33;101256.97;2062893;28;34259;-73
2022/08/26 00:25:06;;;;;;;11.13;7.10;;;;;;;21.11;76.96;101255.88;2062885;28;26252;-75
2022/08/26 00:26:08;;;;;;;12.55;7.40;;;;;;;21.10;76.64;101262.31;2063478;28;23499;-74
2022/08/26 00:27:11;;;;;;;10.32;7.28;;;;;;;21.08;77.60;101255.22;2063264;28;23101;-76
2022/08/26 00:28:14;;;;;;;9.90;6.43;;;;;;;21.08;76.83;101255.22;2056380;28;20106;-75
2022/08/26 00:29:17;;;;;;;11.35;6.90;;;;;;;21.05;76.89;101255.38;2055823;28;20691;-75
2022/08/26 00:30:24;;;;;;;15.40;6.90;;;;;;;21.05;77.36;101256.28;2055825;28;33952;-75
2022/08/26 00:31:27;;;;;;;11.07;7.47;;;;;;;21.03;76.83;101247.34;2063035;28;31006;-74
2022/08/26 00:32:29;;;;;;;10.32;7.35;;;;;;;21.03;77.36;101252.78;2062416;28;30710;-74
2022/08/26 00:33:31;;;;;;;10.98;7.55;;;;;;;21.02;77.55;101261.91;2056077;28;20905;-74
2022/08/26 00:34:36;;;;;;;7.72;6.65;;;;;;;21.01;77.48;101251.09;2056001;28;27157;-74
2022/08/26 00:35:38;;;;;;;9.75;7.15;;;;;;;21.03;77.69;101257.34;2056116;28;24959;-74
2022/08/26 00:36:40;;;;;;;14.43;7.30;;;;;;;20.99;77.29;101256.66;2055988;28;20097;-74
2022/08/26 00:37:45;;;;;;;13.25;7.25;;;;;;;20.97;77.86;101254.00;2062982;28;26476;-74
2022/08/26 00:38:47;;;;;;;14.80;7.65;;;;;;;21.00;77.35;101252.97;2062660;28;37063;-74
2022/08/26 00:39:51;;;;;;;14.23;7.75;;;;;;;20.96;77.29;101254.09;2055726;28;23779;-74
2022/08/26 00:40:57;;;;;;;12.10;7.72;;;;;;;20.96;77.89;101249.56;2063453;28;21299;-73
2022/08/26 00:41:59;;;;;;;11.77;6.78;;;;;;;20.94;78.24;101254.22;2055445;28;24041;-75
2022/08/26 00:43:03;;;;;;;12.35;7.43;;;;;;;20.94;77.60;101258.78;2055056;28;31082;-73
2022/08/26 00:44:09;;;;;;;11.07;7.68;;;;;;;20.92;78.03;101249.81;2055709;28;24085;-73
2022/08/26 00:45:13;;;;;;;10.95;7.38;;;;;;;20.88;78.48;101254.59;2055564;28;30928;-74
2022/08/26 00:46:28;;;;;;;10.00;7.85;;;;;;;20.90;77.89;101252.63;2063329;28;29240;-74
2022/08/26 00:47:37;;;;;;;12.23;8.05;;;;;;;20.90;78.01;101246.31;2062738;28;30963;-74
2022/08/26 00:48:43;;;;;;;11.57;7.82;;;;;;;20.88;78.11;101251.88;2063621;28;31587;-74
2022/08/26 00:49:46;;;;;;;13.50;8.20;;;;;;;20.88;78.52;101254.59;2063065;28;23462;-73
2022/08/26 00:51:10;;;;;;;9.82;7.43;;;;;;;20.86;78.57;101251.09;2062499;28;28705;-73
2022/08/26 00:52:18;;;;;;;11.20;7.40;;;;;;;20.85;78.73;101249.31;2055707;28;25737;-73
2022/08/26 00:53:24;;;;;;;12.65;7.78;;;;;;;20.83;78.16;101250.41;2063610;28;20935;-74
2022/08/26 00:54:32;;;;;;;9.98;7.38;;;;;;;20.82;78.55;101249.53;2063364;28;29648;-73
2022/08/26 00:55:40;;;;;;;12.98;7.53;;;;;;;20.82;78.18;101254.06;2062827;28;33876;-74
2022/08/26 00:56:48;;;;;;;10.15;7.60;;;;;;;20.80;78.57;101251.47;2063529;28;20895;-74
2022/08/26 00:57:52;;;;;;;11.27;8.20;;;;;;;20.78;78.65;101242.50;2063105;28;20972;-74
2022/08/26 00:58:59;;;;;;;14.90;8.48;;;;;;;20.78;78.37;101247.94;2062815;28;31817;-74
2022/08/26 01:00:09;;;;;;;8.40;7.28;;;;;;;20.77;78.94;101246.22;2063279;28;20043;-74
2022/08/26 01:01:11;;;;;;;12.02;8.52;;;;;;;20.78;78.90;101253.38;2062999;28;26611;-73
2022/08/26 01:02:15;;;;;;;12.02;7.78;;;;;;;20.76;78.80;101248.06;2061846;28;32454;-74
2022/08/26 01:03:23;;;;;;;12.55;8.05;;;;;;;20.76;78.97;101244.44;2075254;23;20043;-65
2022/08/26 01:04:24;;;;;;;13.23;8.50;;;;;;;20.75;78.77;101243.56;2056778;28;30572;-65
2022/08/26 01:05:30;;;;;;;13.15;8.48;;;;;;;20.74;78.70;101247.25;2054726;28;20829;-65
2022/08/26 01:06:32;;;;;;;14.93;8.65;;;;;;;20.75;79.26;101245.44;2048022;28;26434;-65
2022/08/26 01:07:34;;;;;;;14.55;7.72;;;;;;;20.75;79.07;101250.88;2047608;28;37035;-65
2022/08/26 01:08:37;;;;;;;12.40;8.63;;;;;;;20.75;79.55;101248.16;2047541;28;20051;-65
2022/08/26 01:09:39;;;;;;;11.80;8.00;;;;;;;20.73;79.33;101245.53;2047948;28;20052;-65
2022/08/26 01:10:41;;;;;;;12.63;8.85;;;;;;;20.76;79.35;101248.06;2047193;28;31699;-65
2022/08/26 01:11:44;;;;;;;9.88;8.20;;;;;;;20.76;79.69;101244.44;2055240;28;24198;-65
2022/08/26 01:12:56;;;;;;;13.50;7.80;;;;;;;20.74;79.48;101247.25;2054178;28;26325;-65
2022/08/26 01:14:04;;;;;;;15.98;8.63;;;;;;;20.72;79.13;101243.75;2054993;28;29281;-65
2022/08/26 01:15:08;;;;;;;15.70;8.57;;;;;;;20.71;79.78;101243.84;2053479;28;26016;-65
2022/08/26 01:16:14;;;;;;;10.23;8.32;;;;;;;20.71;79.37;101247.47;2047786;28;21137;-65
2022/08/26 01:17:17;;;;;;;14.40;8.25;;;;;;;20.70;80.03;101244.84;2047793;28;29483;-65
2022/08/26 01:18:19;;;;;;;10.15;8.07;;;;;;;20.70;79.50;101247.56;2054591;28;29957;-65
2022/08/26 01:19:29;;;;;;;13.75;9.10;;;;;;;20.69;79.80;101248.50;2054969;28;20933;-63
2022/08/26 01:21:20;;;;;;;11.10;8.00;;;;;;;20.67;79.46;101245.88;2054624;28;38511;-65
2022/08/26 01:22:27;;;;;;;;;;;;;;;20.69;79.84;101248.50;2049046;28;20106;-66
2022/08/26 01:23:38;;;;;;;13.90;8.73;;;;;;;20.66;79.67;101237.84;2048100;28;19922;-66
2022/08/26 01:24:41;;;;;;;11.18;8.15;;;;;;;20.66;80.03;101240.56;2047599;28;26142;-66
2022/08/26 01:25:49;;;;;;;15.77;8.35;;;;;;;20.65;80.13;101244.22;2047695;28;25825;-65
2022/08/26 01:26:55;;;;;;;13.05;9.15;;;;;;;20.66;80.19;101246.00;2054752;28;25708;-66
2022/08/26 01:28:02;;;;;;;12.68;8.75;;;;;;;20.65;80.65;101241.50;2054565;28;31950;-65
2022/08/26 01:29:08;;;;;;;14.80;9.88;;;;;;;20.64;80.32;101248.81;2052862;28;37043;-66
2022/08/26 01:30:10;;;;;;;14.73;9.30;;;;;;;20.63;79.71;101244.31;2055497;28;24796;-66
2022/08/26 01:31:17;;;;;;;13.50;8.77;;;;;;;20.64;79.78;101237.03;2053838;28;27900;-66
2022/08/26 01:32:21;;;;;;;11.40;8.18;;;;;;;20.64;80.39;101245.19;2048079;28;20043;-66
2022/08/26 01:33:59;;;;;;;14.18;9.20;;;;;;;20.63;80.09;101248.88;2047269;28;26526;-66
2022/08/26 01:35:01;;;;;;;13.52;8.75;;;;;;;20.62;79.62;101248.03;2049514;28;30622;-66
2022/08/26 01:36:06;;;;;;;12.50;8.50;;;;;;;20.63;80.70;101248.88;2047206;28;39183;-65
2022/08/26 01:37:16;;;;;;;15.73;9.20;;;;;;;20.63;80.08;101238.88;2047238;28;36818;-66
2022/08/26 01:38:18;;;;;;;13.10;9.50;;;;;;;20.63;80.60;101248.88;2047533;28;36771;-66
2022/08/26 01:39:20;;;;;;;11.88;9.30;;;;;;;20.64;80.48;101246.09;2047253;28;28709;-66
2022/08/26 01:40:31;;;;;;;15.18;9.40;;;;;;;20.67;80.61;101242.28;2047347;28;31244;-65
2022/08/26 01:41:36;;;;;;;15.50;9.73;;;;;;;20.66;80.52;101244.13;2055247;28;20074;-66
2022/08/26 01:42:40;;;;;;;11.32;8.40;;;;;;;20.66;79.82;101246.00;2053633;28;25078;-65
2022/08/26 01:43:47;;;;;;;11.85;9.00;;;;;;;20.66;80.39;101251.44;2054473;28;25508;-66
2022/08/26 01:45:14;;;;;;;11.55;9.07;;;;;;;20.65;80.07;101246.94;2055656;28;20035;-66
2022/08/26 01:46:17;;;;;;;11.93;8.43;;;;;;;20.66;80.01;101254.16;2054390;28;30050;-66
2022/08/26 01:47:22;;;;;;;11.52;8.98;;;;;;;20.68;80.37;101258.53;2052362;28;20886;-66
2022/08/26 01:48:30;;;;;;;15.77;8.93;;;;;;;20.67;80.55;101248.59;2054261;28;30712;-66
2022/08/26 01:49:36;;;;;;;14.25;9.57;;;;;;;20.69;80.31;101251.22;2054863;28;23046;-66
2022/08/26 01:50:38;;;;;;;12.05;8.65;;;;;;;20.70;80.26;101250.28;2054803;28;26591;-65
2022/08/26 01:51:40;;;;;;;14.45;9.05;;;;;;;20.70;79.81;101253.84;2054088;28;33479;-66
2022/08/26 01:52:45;;;;;;;13.48;9.43;;;;;;;20.71;80.69;101252.00;2047111;28;30539;-64
2022/08/26 01:53:47;;;;;;;12.20;8.43;;;;;;;20.71;80.07;101252.00;2046786;28;30871;-66
2022/08/26 01:54:50;;;;;;;14.75;9.23;;;;;;;20.70;80.62;101253.00;2047771;28;26506;-66
2022/08/26 01:55:57;;;;;;;13.70;8.93;;;;;;;20.70;79.88;101251.13;2054049;28;29233;-66
2022/08/26 01:57:02;;;;;;;14.52;9.55;;;;;;;20.69;80.42;101259.38;2054146;28;43149;-65
2022/08/26 01:58:12;;;;;;;14.65;9.73;;;;;;;20.69;80.67;101253.94;2054294;28;37789;-66
2022/08/26 01:59:18;;;;;;;13.32;8.60;;;;;;;20.68;80.89;101252.22;2054513;28;30153;-66
2022/08/26 02:00:22;;;;;;;11.15;8.95;;;;;;;20.69;81.00;101253.94;2052640;28;35328;-66
2022/08/26 02:01:26;;;;;;;18.65;10.00;;;;;;;20.66;80.74;101249.59;2047010;28;39250;-66
2022/08/26 02:02:29;;;;;;;12.98;9.30;;;;;;;20.66;80.23;101249.59;2047403;28;23439;-66
2022/08/26 02:03:33;;;;;;;12.35;9.45;;;;;;;20.65;80.39;101255.97;2047140;28;30566;-66
2022/08/26 02:04:42;;;;;;;11.80;8.57;;;;;;;20.66;80.97;101243.28;2047520;28;20139;-66
2022/08/26 02:05:55;;;;;;;12.30;8.95;;;;;;;20.65;80.68;101250.53;2047662;28;28782;-66
2022/08/26 02:07:02;;;;;;;15.13;9.70;;;;;;;20.64;80.70;101251.53;2047313;28;20675;-66
2022/08/26 02:08:06;;;;;;;13.20;9.52;;;;;;;20.63;81.30;101246.16;2054749;28;23228;-66
2022/08/26 02:09:09;;;;;;;15.43;9.75;;;;;;;20.64;81.28;101246.09;2053152;28;23196;-66
2022/08/26 02:10:11;;;;;;;15.25;9.75;;;;;;;20.65;80.57;101246.94;2047380;28;20044;-66
2022/08/26 02:11:14;;;;;;;15.25;10.05;;;;;;;20.63;80.71;101248.88;2046925;28;28173;-66
2022/08/26 02:12:18;;;;;;;13.15;9.73;;;;;;;20.64;80.63;101245.19;2047567;28;20559;-65
2022/08/26 02:13:21;;;;;;;17.67;10.40;;;;;;;20.64;80.93;101246.09;2054063;28;29403;-66
2022/08/26 02:14:31;;;;;;;15.00;9.15;;;;;;;20.63;81.26;101248.88;2054587;28;26131;-66
2022/08/26 02:15:40;;;;;;;14.43;9.82;;;;;;;20.62;81.15;101247.13;2053726;28;20372;-66
2022/08/26 02:16:45;;;;;;;14.73;9.73;;;;;;;20.62;81.47;101247.13;2047036;28;29396;-66
2022/08/26 02:17:50;;;;;;;12.98;8.82;;;;;;;20.61;81.74;101246.25;2055123;28;25986;-66
2022/08/26 02:18:56;;;;;;;12.07;9.80;;;;;;;20.59;80.93;101242.72;2053635;28;25783;-66
2022/08/26 02:19:58;;;;;;;15.65;10.05;;;;;;;20.57;81.43;101245.53;2054567;28;40599;-66
2022/08/26 02:21:00;;;;;;;12.27;9.32;;;;;;;20.57;81.05;101248.25;2055556;28;31771;-66
2022/08/26 02:22:12;;;;;;;12.15;8.90;;;;;;;20.55;81.26;101249.31;2056347;28;22879;-66
2022/08/26 02:23:14;;;;;;;12.25;9.55;;;;;;;20.55;82.10;101250.19;2048131;28;37853;-66
2022/08/26 02:24:23;;;;;;;15.20;9.77;;;;;;;20.53;81.19;101251.25;2049174;28;20107;-65
2022/08/26 02:26:16;;;;;;;12.25;9.57;;;;;;;20.53;82.02;101248.50;2048580;28;28762;-65
2022/08/26 02:27:32;;;;;;;14.80;9.70;;;;;;;20.52;81.84;101242.22;2035948;28;27899;-66
2022/08/26 02:29:00;;;;;;;12.40;9.30;;;;;;;20.51;81.38;101239.56;2056162;28;28610;-66
2022/08/26 02:30:27;;;;;;;14.07;9.82;;;;;;;20.48;81.68;101237.94;2050203;28;29552;-66
2022/08/26 02:31:31;;;;;;;17.65;9.90;;;;;;;20.47;82.35;101241.59;2055548;28;32167;-66
2022/08/26 02:32:33;;;;;;;16.45;10.65;;;;;;;20.46;81.65;101250.75;2055318;28;20902;-66
2022/08/26 02:33:35;;;;;;;13.73;9.70;;;;;;;20.47;82.35;101241.59;2048309;28;27545;-66
2022/08/26 02:34:37;;;;;;;13.85;9.80;;;;;;;20.46;81.95;101239.88;2048626;28;31846;-65
2022/08/26 02:35:39;;;;;;;13.25;9.52;;;;;;;20.44;82.47;101244.53;2048345;28;26249;-65
2022/08/26 02:36:41;;;;;;;14.43;10.13;;;;;;;20.44;82.45;101243.63;2047997;28;39325;-65
2022/08/26 02:37:44;;;;;;;14.10;10.05;;;;;;;20.43;82.54;101240.03;2056131;28;20050;-66
2022/08/26 02:38:45;;;;;;;14.52;10.50;;;;;;;20.45;82.01;101248.13;2055744;28;28834;-66
2022/08/26 02:39:47;;;;;;;15.43;10.90;;;;;;;20.41;82.48;101240.13;2055073;28;27726;-66
2022/08/26 02:40:49;;;;;;;15.32;10.70;;;;;;;20.43;82.61;101240.03;2049266;28;20040;-65
2022/08/26 02:41:51;;;;;;;12.77;9.90;;;;;;;20.43;82.80;101239.19;2048415;28;30503;-66
2022/08/26 02:42:56;;;;;;;12.48;10.10;;;;;;;20.42;82.45;101241.00;2048563;28;30838;-66
2022/08/26 02:43:58;;;;;;;17.77;10.95;;;;;;;20.43;83.11;101234.59;2047975;28;27878;-66
2022/08/26 02:45:00;;;;;;;14.85;10.80;;;;;;;20.43;82.26;101248.19;2048051;28;39847;-66
2022/08/26 02:46:02;;;;;;;14.52;10.50;;;;;;;20.42;83.02;101232.84;2056001;28;20040;-66
2022/08/26 02:47:07;;;;;;;16.10;10.90;;;;;;;20.41;82.57;101239.25;2055455;28;33579;-66
2022/08/26 02:48:13;;;;;;;13.35;9.80;;;;;;;20.41;82.52;101244.69;2055450;28;31255;-66
2022/08/26 02:49:15;;;;;;;14.98;10.23;;;;;;;20.41;83.27;101233.81;2054810;28;35696;-66
2022/08/26 02:50:21;;;;;;;15.82;11.18;;;;;;;20.41;82.91;101231.97;2048705;28;20047;-66
2022/08/26 02:51:23;;;;;;;13.95;10.50;;;;;;;20.42;82.62;101227.41;2056158;28;20080;-66
2022/08/26 02:52:27;;;;;;;15.23;10.75;;;;;;;20.41;82.87;101239.25;2055607;28;26188;-66
2022/08/26 02:53:29;;;;;;;13.75;9.85;;;;;;;20.40;82.96;101232.97;2048180;28;31942;-66
2022/08/26 02:54:32;;;;;;;14.82;10.98;;;;;;;20.38;82.86;101240.31;2047593;28;26039;-66
2022/08/26 02:55:37;;;;;;;14.48;11.25;;;;;;;20.39;82.83;101235.75;2048470;28;30430;-65
2022/08/26 02:56:42;;;;;;;14.68;10.45;;;;;;;20.39;82.69;101235.75;2055601;28;20051;-66
2022/08/26 02:57:43;;;;;;;16.13;10.90;;;;;;;20.38;83.00;101236.72;2055279;28;27375;-66
2022/08/26 02:58:45;;;;;;;14.07;11.07;;;;;;;20.37;83.44;101237.69;2047557;28;25743;-66
2022/08/26 02:59:47;;;;;;;14.32;10.88;;;;;;;20.35;83.58;101235.06;2048217;28;25458;-66
2022/08/26 03:00:49;;;;;;;16.77;10.95;;;;;;;20.35;82.93;101234.16;2048063;28;24011;-66
2022/08/26 03:01:54;;;;;;;17.67;10.95;;;;;;;20.33;83.55;101237.00;2048359;28;26650;-66
2022/08/26 03:02:57;;;;;;;16.60;11.30;;;;;;;20.32;83.50;101231.66;2048101;28;26478;-65
2022/08/26 03:04:03;;;;;;;15.00;10.18;;;;;;;20.31;83.66;101238.03;2048260;28;29992;-66
2022/08/26 03:05:06;;;;;;;16.42;11.77;;;;;;;20.31;84.37;101240.78;2055812;28;21837;-66
2022/08/26 03:06:08;;;;;;;14.90;11.27;;;;;;;20.30;83.22;101241.75;2055304;28;21658;-66
2022/08/26 03:07:10;;;;;;;13.90;9.90;;;;;;;20.28;83.79;101232.78;2048113;28;24499;-66
2022/08/26 03:08:11;;;;;;;18.80;11.48;;;;;;;20.27;84.46;101240.06;2048305;28;30933;-66
2022/08/26 03:09:13;;;;;;;14.50;11.02;;;;;;;20.26;84.20;101237.44;2047999;28;26953;-65
2022/08/26 03:10:20;;;;;;;14.02;10.52;;;;;;;20.25;83.71;101239.28;2048519;28;26949;-66
2022/08/26 03:11:22;;;;;;;18.10;11.60;;;;;;;20.24;83.73;101232.09;2047611;28;28294;-66
2022/08/26 03:12:24;;;;;;;12.95;10.73;;;;;;;20.24;84.41;101229.38;2048196;28;32023;-65
2022/08/26 03:13:29;;;;;;;18.15;10.80;;;;;;;20.23;83.67;101234.91;2047915;28;24624;-66
2022/08/26 03:14:30;;;;;;;16.33;12.05;;;;;;;20.20;84.24;101231.38;2047829;28;23592;-66
2022/08/26 03:15:32;;;;;;;14.57;10.65;;;;;;;20.20;84.60;101225.09;2048135;28;27527;-66
2022/08/26 03:16:36;;;;;;;15.88;10.88;;;;;;;20.19;84.48;101228.78;2048586;28;20110;-66
2022/08/26 03:17:38;;;;;;;14.82;10.20;;;;;;;20.16;84.31;101224.38;2048042;28;27551;-66
2022/08/26 03:18:40;;;;;;;15.82;11.00;;;;;;;20.15;84.77;101229.91;2048423;28;24662;-66
2022/08/26 03:19:42;;;;;;;13.82;11.75;;;;;;;20.15;84.44;101236.25;2047898;28;21835;-66
2022/08/26 03:20:44;;;;;;;14.55;9.93;;;;;;;20.10;84.47;101227.47;2048220;28;30398;-66
2022/08/26 03:21:46;;;;;;;15.25;11.23;;;;;;;20.09;84.55;101225.72;2048215;28;20875;-66
2022/08/26 03:22:52;;;;;;;12.80;10.32;;;;;;;20.07;84.79;101229.50;2048326;28;20051;-66
2022/08/26 03:23:53;;;;;;;18.90;10.60;;;;;;;20.03;84.27;101232.38;2048200;28;20714;-66
2022/08/26 03:24:57;;;;;;;11.43;9.80;;;;;;;20.01;84.82;101236.19;2048462;28;20118;-66
2022/08/26 03:26:01;;;;;;;14.60;10.70;;;;;;;20.00;85.18;101237.13;2048496;28;20094;-65
2022/08/26 03:27:03;;;;;;;14.20;9.95;;;;;;;19.98;85.17;101236.34;2048461;28;35698;-66
2022/08/26 03:28:06;;;;;;;12.93;10.30;;;;;;;19.94;85.33;101229.34;2048040;28;20090;-66
2022/08/26 03:30:40;;;;;;;;;;;;;;;19.89;85.33;101232.31;2048847;28;22645;-65
2022/08/26 03:31:44;;;;;;;11.57;9.60;;;;;;;19.87;85.22;101233.38;2046885;28;32797;-66
2022/08/26 03:32:48;;;;;;;14.65;10.65;;;;;;;19.84;84.71;101235.28;2048052;28;25141;-66
2022/08/26 03:33:49;;;;;;;17.75;11.95;;;;;;;19.83;85.70;101230.81;2047939;28;28889;-65
2022/08/26 03:34:51;;;;;;;15.55;11.23;;;;;;;19.80;85.54;101233.72;2047855;28;26969;-66
2022/08/26 03:35:54;;;;;;;13.23;10.18;;;;;;;19.80;85.59;101233.72;2048261;28;23799;-65
2022/08/26 03:36:56;;;;;;;14.82;10.13;;;;;;;19.78;85.46;101235.63;2047922;28;30179;-66
2022/08/26 03:38:02;;;;;;;17.13;10.15;;;;;;;19.75;85.14;101241.25;2048493;28;20036;-66
2022/08/26 03:39:05;;;;;;;11.93;10.80;;;;;;;19.71;85.56;101241.47;2048513;28;20122;-66
2022/08/26 03:40:10;;;;;;;13.20;10.85;;;;;;;19.67;85.84;101238.06;2047556;28;28159;-65
2022/08/26 03:41:12;;;;;;;12.07;10.18;;;;;;;19.65;85.94;101242.72;2047858;28;22041;-66
2022/08/26 03:42:15;;;;;;;12.75;9.95;;;;;;;19.64;86.22;101238.22;2048367;28;20932;-66
2022/08/26 03:43:18;;;;;;;15.10;10.52;;;;;;;19.61;86.72;101236.56;2047978;28;31270;-66
2022/08/26 03:44:20;;;;;;;14.00;10.90;;;;;;;19.59;86.55;101235.75;2055333;28;20916;-66
2022/08/26 03:45:23;;;;;;;13.00;9.57;;;;;;;19.57;86.71;101234.09;2055565;28;21843;-66
2022/08/26 03:46:29;;;;;;;17.15;11.85;;;;;;;19.57;86.68;101229.53;2055110;28;27719;-66
2022/08/26 03:47:32;;;;;;;19.02;10.30;;;;;;;19.55;86.95;101230.59;2055011;28;26578;-66
2022/08/26 03:48:34;;;;;;;13.65;10.55;;;;;;;19.56;86.86;101235.94;2047807;28;29238;-66
2022/08/26 03:49:36;;;;;;;12.88;11.07;;;;;;;19.53;86.70;101233.41;2048169;28;37714;-66
2022/08/26 03:50:38;;;;;;;15.38;10.82;;;;;;;19.54;86.87;101231.56;2047932;28;29865;-66
2022/08/26 03:51:40;;;;;;;14.93;10.63;;;;;;;19.52;86.92;101233.47;2047930;28;29661;-66
2022/08/26 03:52:42;;;;;;;14.77;11.32;;;;;;;19.51;87.78;101229.91;2047221;28;40231;-66
2022/08/26 03:53:47;;;;;;;13.88;11.18;;;;;;;19.49;87.64;101239.06;2047921;28;30138;-66
2022/08/26 03:54:51;;;;;;;16.00;10.95;;;;;;;19.45;86.98;101232.94;2047601;28;29380;-66
2022/08/26 03:55:53;;;;;;;12.90;10.65;;;;;;;19.43;87.41;101238.47;2048374;28;20178;-65
2022/08/26 03:56:55;;;;;;;15.68;11.02;;;;;;;19.41;87.79;101243.09;2048060;28;24446;-65
2022/08/26 03:57:58;;;;;;;12.93;11.50;;;;;;;19.41;88.17;101244.94;2048002;28;28862;-66
2022/08/26 03:59:01;;;;;;;16.73;11.43;;;;;;;19.42;88.04;101247.56;2047697;28;24503;-66
2022/08/26 04:00:07;;;;;;;14.18;10.25;;;;;;;19.43;87.86;101243.00;2047575;28;31052;-66
2022/08/26 04:01:13;;;;;;;16.38;11.50;;;;;;;19.41;87.71;101236.78;2048040;28;20074;-66
2022/08/26 04:02:16;;;;;;;13.65;11.88;;;;;;;19.41;88.25;101232.22;2048071;28;25651;-66
2022/08/26 04:03:56;;;;;;;14.35;11.70;;;;;;;19.38;87.92;101239.66;2047280;28;29961;-66
2022/08/26 04:04:45;;;;;;;11.43;10.25;;;;;;;19.36;88.29;101245.22;2048460;28;20964;-66
2022/08/26 04:05:51;;;;;;;14.02;11.63;;;;;;;19.35;88.25;101240.72;2047361;28;32960;-66
2022/08/26 04:06:57;;;;;;;15.75;10.88;;;;;;;19.34;88.89;101232.66;2047944;28;22859;-66
2022/08/26 04:08:03;;;;;;;13.77;10.82;;;;;;;19.32;88.30;101231.88;2047678;28;27932;-66
2022/08/26 04:09:11;;;;;;;13.18;10.77;;;;;;;19.30;88.40;101240.09;2047985;28;25093;-66
2022/08/26 04:10:20;;;;;;;14.05;10.20;;;;;;;19.26;88.69;101233.97;2048145;28;29804;-66
2022/08/26 04:11:30;;;;;;;14.30;11.20;;;;;;;19.24;88.76;101235.88;2048068;28;26235;-66
2022/08/26 04:12:36;;;;;;;16.60;11.85;;;;;;;19.23;88.93;101234.13;2048330;28;22112;-66
2022/08/26 04:13:38;;;;;;;15.38;10.90;;;;;;;19.21;88.60;101229.75;2048121;28;24296;-66
2022/08/26 04:14:41;;;;;;;13.15;10.50;;;;;;;19.18;89.23;101230.78;2047692;28;25473;-66
2022/08/26 04:15:43;;;;;;;11.90;10.23;;;;;;;19.15;89.17;101235.50;2047513;28;27401;-66
2022/08/26 04:16:45;;;;;;;17.80;11.45;;;;;;;19.12;89.53;101230.25;2048213;28;23959;-66
2022/08/26 04:17:46;;;;;;;16.23;11.73;;;;;;;19.12;89.77;101238.41;2054923;28;27295;-66
2022/08/26 04:18:48;;;;;;;17.25;12.02;;;;;;;19.12;89.54;101230.25;2055157;28;30455;-66
2022/08/26 04:19:52;;;;;;;11.98;10.77;;;;;;;19.10;89.18;101226.75;2047601;28;24900;-66
2022/08/26 04:20:54;;;;;;;16.23;11.55;;;;;;;19.08;89.49;101224.97;2047573;28;38179;-66
2022/08/26 04:21:56;;;;;;;15.20;11.13;;;;;;;19.08;89.74;101227.69;2047538;28;29997;-66
2022/08/26 04:22:58;;;;;;;14.77;11.02;;;;;;;19.06;89.38;101228.75;2047628;28;25034;-66
2022/08/26 04:24:00;;;;;;;16.92;12.00;;;;;;;19.05;89.72;101241.41;2047645;28;30290;-66
2022/08/26 04:25:07;;;;;;;13.80;10.52;;;;;;;19.03;89.19;101240.63;2047645;28;34180;-66
2022/08/26 04:26:11;;;;;;;16.40;11.23;;;;;;;19.02;89.76;101238.91;2048007;28;20075;-67
2022/08/26 04:27:13;;;;;;;17.58;11.10;;;;;;;19.03;89.56;101232.50;2048269;28;20040;-66
2022/08/26 04:28:15;;;;;;;15.88;11.90;;;;;;;19.02;90.15;101235.28;2047584;28;25464;-66
2022/08/26 04:29:25;;;;;;;14.02;10.85;;;;;;;19.00;90.33;101224.50;2047622;28;28337;-66
2022/08/26 04:30:27;;;;;;;15.18;10.77;;;;;;;18.98;90.07;101234.56;2047200;28;29558;-66
2022/08/26 04:31:29;;;;;;;14.20;11.40;;;;;;;18.97;89.88;101237.34;2055164;28;31864;-66
2022/08/26 04:32:31;;;;;;;13.02;11.15;;;;;;;18.96;90.28;101232.91;2054706;28;24857;-66
2022/08/26 04:33:33;;;;;;;13.77;10.52;;;;;;;18.95;89.71;101231.13;2047837;28;27125;-66
2022/08/26 04:34:36;;;;;;;15.25;11.02;;;;;;;18.93;89.76;101236.66;2047468;28;26003;-66
2022/08/26 04:35:38;;;;;;;14.50;11.73;;;;;;;18.93;90.11;101236.66;2048461;28;24163;-66
2022/08/26 04:36:41;;;;;;;15.93;11.32;;;;;;;18.92;90.11;101232.19;2054678;28;30578;-66
2022/08/26 04:37:43;;;;;;;14.88;11.18;;;;;;;18.92;90.33;101239.47;2054740;28;30928;-66
2022/08/26 04:38:50;;;;;;;14.25;11.23;;;;;;;18.89;90.20;101235.94;2047390;28;29678;-66
2022/08/26 04:39:54;;;;;;;13.98;11.45;;;;;;;18.88;90.21;101234.19;2047942;28;24826;-66
2022/08/26 04:40:56;;;;;;;14.05;11.73;;;;;;;18.89;90.51;101232.34;2047585;28;20916;-66
2022/08/26 04:41:59;;;;;;;12.05;10.65;;;;;;;18.89;90.76;101229.63;2047675;28;32218;-66
2022/08/26 04:43:01;;;;;;;13.20;9.95;;;;;;;18.88;90.79;101242.34;2047061;28;30071;-66
2022/08/26 04:44:05;;;;;;;12.35;10.93;;;;;;;18.87;90.42;101237.00;2047868;28;24061;-66
2022/08/26 04:45:07;;;;;;;16.98;11.88;;;;;;;18.87;90.23;101237.00;2046868;28;32929;-66
2022/08/26 04:46:18;;;;;;;15.40;12.43;;;;;;;18.88;91.27;101239.63;2048754;28;21034;-66
2022/08/26 04:47:23;;;;;;;16.33;13.27;;;;;;;18.87;91.37;101235.13;2047834;28;20907;-65
2022/08/26 04:48:30;;;;;;;17.15;12.77;;;;;;;18.88;90.99;101242.34;2047766;28;27386;-66
2022/08/26 04:49:32;;;;;;;14.80;11.85;;;;;;;18.88;91.32;101245.06;2047133;28;28308;-66
2022/08/26 04:50:36;;;;;;;13.50;11.02;;;;;;;18.89;90.81;101241.34;2047349;28;32616;-66
2022/08/26 04:51:39;;;;;;;17.90;12.40;;;;;;;18.92;91.42;101240.34;2047365;28;22582;-66
2022/08/26 04:52:42;;;;;;;16.30;12.63;;;;;;;18.94;91.07;101243.84;2047620;28;29964;-65
2022/08/26 04:53:44;;;;;;;20.90;13.23;;;;;;;18.95;91.05;101242.00;2047225;28;31629;-66
2022/08/26 04:54:46;;;;;;;15.93;11.50;;;;;;;18.96;90.72;101244.63;2047900;28;20779;-66
2022/08/26 04:55:48;;;;;;;17.27;12.27;;;;;;;18.96;90.35;101244.63;2047400;28;26494;-66
2022/08/26 04:56:55;;;;;;;13.35;11.13;;;;;;;18.97;90.29;101242.78;2047383;28;22170;-66
2022/08/26 04:57:57;;;;;;;12.77;10.43;;;;;;;19.00;90.25;101237.19;2047538;28;35002;-66
2022/08/26 04:58:59;;;;;;;16.77;11.95;;;;;;;19.04;90.74;101231.53;2047445;28;34242;-66